Time;durP1;ratioP1;P1;durP2;ratioP2;P2;SDS_P1;SDS_P2;PMS_P1;PMS_P2;Temp;Humidity;BMP_temperature;BMP_pressure;BME280_temperature;BME280_humidity;BME280_pressure;Samples;Min_cycle;Max_cycle;Signal;HPM_P1;HPM_P2
2023/12/15 00:00:35;;;;;;;33.20;17.67;;;2.90;99.90;;;;;;5009465;28;20045;-42
2023/12/15 00:03:02;;;;;;;38.58;17.50;;;2.90;99.90;;;;;;4991326;28;20040;-43
2023/12/15 00:05:28;;;;;;;44.10;18.17;;;2.90;99.90;;;;;;5008604;28;20105;-43
2023/12/15 00:07:53;;;;;;;37.05;18.55;;;2.90;99.90;;;;;;5008727;28;20105;-43
2023/12/15 00:10:19;;;;;;;40.40;18.20;;;2.90;99.90;;;;;;4991881;28;20387;-44
2023/12/15 00:12:45;;;;;;;32.88;17.75;;;2.90;99.90;;;;;;5009193;28;20034;-43
2023/12/15 00:15:10;;;;;;;36.42;18.27;;;2.80;99.90;;;;;;4990388;28;20040;-44
2023/12/15 00:17:36;;;;;;;33.50;16.70;;;2.90;99.90;;;;;;5009314;28;20033;-43
2023/12/15 00:20:02;;;;;;;36.72;18.05;;;2.80;99.90;;;;;;5008925;28;20034;-43
2023/12/15 00:22:27;;;;;;;35.95;18.17;;;2.80;99.90;;;;;;5008947;28;20052;-43
2023/12/15 00:24:53;;;;;;;40.70;19.40;;;2.80;99.90;;;;;;5008374;28;20515;-43
2023/12/15 00:27:18;;;;;;;38.05;18.65;;;2.80;99.90;;;;;;4991758;28;20030;-43
2023/12/15 00:29:44;;;;;;;40.05;19.58;;;2.90;99.90;;;;;;5009066;28;20034;-45
2023/12/15 00:32:10;;;;;;;46.25;21.45;;;2.90;99.90;;;;;;5009016;28;20021;-47
2023/12/15 00:34:35;;;;;;;38.03;18.55;;;3.00;99.90;;;;;;5008836;28;20376;-43
2023/12/15 00:37:01;;;;;;;40.28;19.50;;;3.00;99.90;;;;;;5008614;28;20030;-44
2023/12/15 00:39:26;;;;;;;44.47;19.58;;;3.00;99.90;;;;;;5009075;28;20053;-43
2023/12/15 00:41:52;;;;;;;51.03;23.55;;;3.10;99.90;;;;;;4988323;28;20049;-44
2023/12/15 00:44:17;;;;;;;46.47;21.98;;;3.10;99.90;;;;;;5008240;28;20234;-43
2023/12/15 00:46:43;;;;;;;41.33;20.55;;;3.20;99.90;;;;;;4990439;28;20050;-45
2023/12/15 00:49:09;;;;;;;43.78;20.70;;;3.20;99.90;;;;;;5008429;28;20450;-43
2023/12/15 00:51:34;;;;;;;43.72;21.30;;;3.20;99.90;;;;;;5008740;28;20121;-46
2023/12/15 00:54:00;;;;;;;40.13;19.25;;;3.20;99.90;;;;;;5008971;28;20045;-43
2023/12/15 00:56:26;;;;;;;39.03;18.58;;;3.20;99.90;;;;;;5008357;28;20105;-43
2023/12/15 00:58:51;;;;;;;46.05;20.30;;;3.30;99.90;;;;;;5009037;28;20058;-43
2023/12/15 01:01:17;;;;;;;42.33;20.77;;;3.30;99.90;;;;;;5016846;28;20041;-46
2023/12/15 01:03:42;;;;;;;45.38;20.67;;;3.40;99.90;;;;;;5008697;28;20026;-43
2023/12/15 01:06:08;;;;;;;39.22;19.25;;;3.40;99.90;;;;;;5008296;28;20030;-43
2023/12/15 01:08:33;;;;;;;40.30;20.23;;;3.40;99.90;;;;;;5008576;28;20028;-43
2023/12/15 01:10:59;;;;;;;42.00;20.70;;;3.40;99.90;;;;;;5008674;28;20322;-44
2023/12/15 01:13:25;;;;;;;39.10;19.33;;;3.50;99.90;;;;;;5008465;28;20021;-44
2023/12/15 01:15:51;;;;;;;40.95;19.98;;;3.50;99.90;;;;;;5007889;28;20125;-45
2023/12/15 01:18:16;;;;;;;46.35;21.92;;;3.50;99.90;;;;;;5007611;28;20037;-45
2023/12/15 01:20:42;;;;;;;43.60;20.20;;;3.60;99.90;;;;;;5008324;28;20040;-44
2023/12/15 01:23:07;;;;;;;48.50;21.42;;;3.60;99.90;;;;;;5007563;28;20030;-45
2023/12/15 01:25:33;;;;;;;51.80;22.38;;;3.60;99.90;;;;;;5007229;28;20026;-44
2023/12/15 01:27:59;;;;;;;48.72;21.73;;;3.60;99.90;;;;;;5008032;28;20029;-44
2023/12/15 01:30:24;;;;;;;50.53;23.30;;;3.60;99.90;;;;;;5008463;28;20085;-45
2023/12/15 01:32:50;;;;;;;42.95;21.25;;;3.60;99.90;;;;;;5008312;28;20049;-46
2023/12/15 01:35:16;;;;;;;45.67;22.83;;;3.70;99.90;;;;;;5007222;28;20018;-44
2023/12/15 01:37:42;;;;;;;44.75;21.05;;;3.70;99.90;;;;;;5008057;28;20451;-47
2023/12/15 01:40:08;;;;;;;48.03;21.55;;;3.70;99.90;;;;;;5007376;28;20025;-45
2023/12/15 01:42:34;;;;;;;47.03;21.92;;;3.70;99.90;;;;;;4990327;28;20061;-45
2023/12/15 01:44:59;;;;;;;49.55;22.50;;;3.60;99.90;;;;;;5007187;28;20053;-43
2023/12/15 01:47:26;;;;;;;52.05;24.05;;;3.70;99.90;;;;;;5007949;28;20026;-44
2023/12/15 01:49:52;;;;;;;49.17;23.38;;;3.70;99.90;;;;;;5007958;28;20026;-47
2023/12/15 01:52:18;;;;;;;49.67;23.20;;;3.70;99.90;;;;;;5007596;28;20364;-44
2023/12/15 01:54:44;;;;;;;49.03;23.05;;;3.60;99.90;;;;;;5007639;28;20026;-45
2023/12/15 01:57:10;;;;;;;48.30;23.20;;;3.70;99.90;;;;;;5025397;28;20347;-47
2023/12/15 01:59:48;;;;;;;56.05;23.92;;;3.70;99.90;;;;;;4996195;28;20439;-43
2023/12/15 02:02:13;;;;;;;46.65;23.90;;;3.70;99.90;;;;;;5007717;28;20057;-46
2023/12/15 02:04:39;;;;;;;53.00;22.75;;;3.60;99.90;;;;;;5008165;28;20040;-43
2023/12/15 02:07:05;;;;;;;50.80;23.23;;;3.60;99.90;;;;;;4990282;28;20046;-44
2023/12/15 02:09:31;;;;;;;51.92;24.05;;;3.60;99.90;;;;;;5007734;28;20436;-48
2023/12/15 02:11:56;;;;;;;57.80;26.02;;;3.50;99.90;;;;;;5007998;28;20539;-44
2023/12/15 02:14:23;;;;;;;54.20;25.23;;;3.50;99.90;;;;;;5007771;28;20036;-44
2023/12/15 02:16:48;;;;;;;57.35;25.83;;;3.50;99.90;;;;;;4990063;28;20041;-47
2023/12/15 02:19:14;;;;;;;53.63;24.52;;;3.50;99.90;;;;;;5007598;28;20188;-43
2023/12/15 02:21:40;;;;;;;47.42;23.20;;;3.40;99.90;;;;;;5007127;28;20089;-47
2023/12/15 02:24:06;;;;;;;57.53;26.33;;;3.40;99.90;;;;;;5008017;28;20086;-44
2023/12/15 02:26:32;;;;;;;65.22;28.38;;;3.40;99.90;;;;;;5007790;28;20109;-44
2023/12/15 02:28:57;;;;;;;52.38;24.33;;;3.40;99.90;;;;;;5007037;28;20026;-44
2023/12/15 02:31:24;;;;;;;54.67;24.95;;;3.30;99.90;;;;;;4994543;28;20038;-44
2023/12/15 02:33:53;;;;;;;60.92;26.55;;;3.30;99.90;;;;;;5011382;28;20030;-45
2023/12/15 02:36:22;;;;;;;63.33;28.23;;;3.30;99.90;;;;;;5011752;28;20026;-45
2023/12/15 02:38:48;;;;;;;60.50;27.13;;;3.30;99.90;;;;;;5011453;28;20025;-44
2023/12/15 02:41:14;;;;;;;56.08;25.13;;;3.30;99.90;;;;;;5011736;28;20026;-43
2023/12/15 02:43:40;;;;;;;54.70;24.33;;;3.30;99.90;;;;;;5011894;28;20076;-45
2023/12/15 02:46:06;;;;;;;58.78;25.45;;;3.30;99.90;;;;;;5011801;28;20026;-45
2023/12/15 02:48:32;;;;;;;57.17;25.60;;;3.30;99.90;;;;;;5011567;28;20379;-45
2023/12/15 02:50:58;;;;;;;60.03;24.80;;;3.30;99.90;;;;;;5011249;28;20030;-45
2023/12/15 02:53:23;;;;;;;55.47;26.10;;;3.40;99.90;;;;;;4993375;28;20033;-44
2023/12/15 02:55:49;;;;;;;60.03;25.42;;;3.40;99.90;;;;;;5010792;28;20161;-45
2023/12/15 02:58:18;;;;;;;59.35;26.30;;;3.50;99.90;;;;;;5010701;28;20032;-43
2023/12/15 03:00:44;;;;;;;61.22;26.70;;;3.50;99.90;;;;;;5011068;28;20100;-44
2023/12/15 03:03:09;;;;;;;63.28;29.90;;;3.50;99.90;;;;;;5011193;28;20121;-44
2023/12/15 03:05:35;;;;;;;53.17;25.42;;;3.50;99.90;;;;;;5010865;28;20025;-43
2023/12/15 03:08:02;;;;;;;53.40;25.90;;;3.50;99.90;;;;;;5011063;28;20037;-47
2023/12/15 03:10:27;;;;;;;57.42;26.73;;;3.50;99.90;;;;;;5011991;28;20022;-45
2023/12/15 03:12:53;;;;;;;54.88;25.58;;;3.60;99.90;;;;;;5011394;28;20392;-45
2023/12/15 03:15:19;;;;;;;53.85;25.05;;;3.60;99.90;;;;;;5010027;28;20073;-43
2023/12/15 03:17:44;;;;;;;56.78;26.27;;;3.60;99.90;;;;;;5010481;28;20022;-44
2023/12/15 03:20:10;;;;;;;55.50;26.40;;;3.60;99.90;;;;;;4992752;28;20018;-43
2023/12/15 03:22:39;;;;;;;57.30;26.83;;;3.60;99.90;;;;;;5009303;28;20030;-46
2023/12/15 03:25:07;;;;;;;57.60;26.63;;;3.70;99.90;;;;;;5009878;28;20034;-43
2023/12/15 03:27:33;;;;;;;56.33;26.95;;;3.70;99.90;;;;;;5010351;28;20026;-46
2023/12/15 03:30:00;;;;;;;57.35;26.17;;;3.70;99.90;;;;;;5010169;28;20033;-45
2023/12/15 03:32:25;;;;;;;60.80;28.23;;;3.70;99.90;;;;;;4992338;28;20124;-45
2023/12/15 03:34:51;;;;;;;52.35;25.58;;;3.70;99.90;;;;;;5009822;28;20108;-47
2023/12/15 03:37:17;;;;;;;54.80;26.38;;;3.70;99.90;;;;;;4994789;28;20061;-45
2023/12/15 03:39:43;;;;;;;59.67;28.58;;;3.70;99.90;;;;;;5009947;28;20038;-44
2023/12/15 03:42:09;;;;;;;60.00;27.92;;;3.70;99.90;;;;;;5009814;28;20586;-45
2023/12/15 03:44:36;;;;;;;52.58;26.92;;;3.70;99.90;;;;;;5010367;28;20051;-44
2023/12/15 03:47:02;;;;;;;58.75;28.48;;;3.70;99.90;;;;;;5009802;28;20033;-43
2023/12/15 03:49:28;;;;;;;56.53;26.17;;;3.70;99.90;;;;;;4992515;28;20511;-42
2023/12/15 03:51:54;;;;;;;56.97;27.73;;;3.80;99.90;;;;;;4993721;28;20032;-43
2023/12/15 03:54:19;;;;;;;53.85;27.30;;;3.80;99.90;;;;;;5009521;28;20021;-48
2023/12/15 03:56:45;;;;;;;55.83;25.90;;;3.80;99.90;;;;;;5009795;28;20553;-46
2023/12/15 03:59:11;;;;;;;56.70;27.38;;;3.80;99.90;;;;;;5010383;28;20041;-44
2023/12/15 04:01:36;;;;;;;56.10;25.25;;;3.80;99.90;;;;;;5009854;28;20498;-44
2023/12/15 04:04:02;;;;;;;56.20;27.48;;;3.80;99.90;;;;;;5009845;28;20022;-43
2023/12/15 04:06:28;;;;;;;55.53;25.02;;;3.80;99.90;;;;;;5009470;28;20041;-44
2023/12/15 04:08:53;;;;;;;58.67;27.98;;;3.80;99.90;;;;;;4993687;28;20034;-44
2023/12/15 04:11:19;;;;;;;56.25;27.42;;;3.80;99.90;;;;;;5011134;28;20017;-44
2023/12/15 04:13:45;;;;;;;60.45;26.45;;;3.80;99.90;;;;;;5009961;28;20037;-43
2023/12/15 04:16:11;;;;;;;54.92;27.00;;;3.80;99.90;;;;;;5009411;28;20041;-44
2023/12/15 04:18:38;;;;;;;58.38;28.50;;;3.90;99.90;;;;;;5010040;28;20463;-45
2023/12/15 04:21:04;;;;;;;58.63;27.33;;;3.90;99.90;;;;;;5009568;28;20029;-45
2023/12/15 04:23:30;;;;;;;55.45;27.67;;;3.90;99.90;;;;;;5009472;28;20026;-44
2023/12/15 04:25:58;;;;;;;62.72;27.70;;;3.90;99.90;;;;;;5009417;28;20069;-43
2023/12/15 04:28:25;;;;;;;56.10;26.27;;;3.90;99.90;;;;;;5010827;28;20045;-45
2023/12/15 04:31:14;;;;;;;55.47;26.38;;;3.90;99.90;;;;;;5009740;28;20033;-43
2023/12/15 04:33:39;;;;;;;53.42;25.92;;;3.90;99.90;;;;;;5005201;28;20198;-45
2023/12/15 04:36:05;;;;;;;53.40;25.58;;;3.90;99.90;;;;;;5008943;28;20550;-44
2023/12/15 04:38:31;;;;;;;54.42;25.80;;;3.90;99.90;;;;;;5009091;28;20032;-43
2023/12/15 04:40:57;;;;;;;58.45;26.45;;;3.90;99.90;;;;;;5009295;28;20022;-45
2023/12/15 04:43:22;;;;;;;55.30;25.65;;;3.90;99.90;;;;;;5009121;28;20182;-44
2023/12/15 04:45:48;;;;;;;57.30;25.83;;;3.90;99.90;;;;;;5009056;28;20018;-44
2023/12/15 04:48:13;;;;;;;56.15;25.33;;;4.00;99.90;;;;;;5008811;28;20022;-43
2023/12/15 04:50:39;;;;;;;47.60;23.70;;;3.90;99.90;;;;;;5009149;28;20037;-46
2023/12/15 04:53:06;;;;;;;56.47;25.42;;;4.00;99.90;;;;;;4999191;28;20025;-44
2023/12/15 04:55:31;;;;;;;52.45;24.83;;;4.00;99.90;;;;;;5008802;28;20018;-47
2023/12/15 04:57:57;;;;;;;53.58;25.38;;;4.00;99.90;;;;;;4991128;28;20022;-43
2023/12/15 05:00:23;;;;;;;48.85;22.92;;;4.00;99.90;;;;;;5008805;28;20112;-43
2023/12/15 05:02:49;;;;;;;52.35;25.50;;;4.00;99.90;;;;;;5008922;28;20113;-43
2023/12/15 05:05:15;;;;;;;56.22;26.33;;;4.00;99.90;;;;;;5008021;28;20018;-43
2023/12/15 05:07:41;;;;;;;52.22;25.17;;;4.00;99.90;;;;;;4990961;28;20033;-44
2023/12/15 05:10:07;;;;;;;53.33;24.60;;;4.00;99.90;;;;;;5008539;28;20403;-45
2023/12/15 05:12:34;;;;;;;51.15;24.83;;;4.00;99.90;;;;;;5009031;28;20033;-44
2023/12/15 05:15:03;;;;;;;50.97;24.27;;;4.00;99.90;;;;;;5009101;28;20034;-44
2023/12/15 05:17:32;;;;;;;48.00;24.90;;;4.00;99.90;;;;;;5009933;28;20303;-43
2023/12/15 05:19:57;;;;;;;49.88;23.27;;;4.00;99.90;;;;;;5008370;28;20022;-43
2023/12/15 05:22:23;;;;;;;50.88;24.20;;;4.10;99.90;;;;;;5008983;28;20025;-44
2023/12/15 05:24:51;;;;;;;50.95;23.42;;;4.10;99.90;;;;;;5008505;28;20084;-44
2023/12/15 05:27:17;;;;;;;47.13;22.50;;;4.10;99.90;;;;;;5009004;28;20034;-45
2023/12/15 05:29:46;;;;;;;58.50;25.58;;;4.20;99.90;;;;;;5008717;28;20524;-44
2023/12/15 05:32:12;;;;;;;49.83;22.42;;;4.10;99.90;;;;;;5008897;28;20014;-43
2023/12/15 05:34:38;;;;;;;52.42;24.25;;;4.10;99.90;;;;;;5010987;28;20391;-44
2023/12/15 05:37:04;;;;;;;50.28;23.10;;;4.20;99.90;;;;;;5008540;28;20025;-45
2023/12/15 05:39:29;;;;;;;57.97;25.23;;;4.20;99.90;;;;;;5001470;28;20033;-44
2023/12/15 05:41:55;;;;;;;51.63;25.77;;;4.20;99.90;;;;;;5013345;28;20480;-44
2023/12/15 05:44:20;;;;;;;50.67;23.60;;;4.20;99.90;;;;;;5015005;28;20161;-46
2023/12/15 05:46:46;;;;;;;52.33;24.75;;;4.20;99.90;;;;;;5008836;28;20134;-45
2023/12/15 05:49:12;;;;;;;54.30;25.88;;;4.10;99.90;;;;;;5014346;28;20025;-44
2023/12/15 05:51:38;;;;;;;57.55;26.48;;;4.10;99.90;;;;;;5010167;28;20534;-45
2023/12/15 05:54:04;;;;;;;59.80;26.70;;;4.10;99.90;;;;;;5010325;28;20030;-47
2023/12/15 05:56:30;;;;;;;53.70;25.83;;;4.10;99.90;;;;;;5003998;28;20025;-45
2023/12/15 05:58:56;;;;;;;56.22;27.25;;;4.10;99.90;;;;;;5007831;28;20047;-43
2023/12/15 06:01:22;;;;;;;56.42;26.50;;;4.10;99.90;;;;;;5004650;28;20033;-46
2023/12/15 06:03:48;;;;;;;55.13;25.00;;;4.10;99.90;;;;;;5007808;28;20490;-43
2023/12/15 06:06:14;;;;;;;56.53;25.80;;;4.10;99.90;;;;;;5011581;28;20010;-44
2023/12/15 06:08:39;;;;;;;60.13;28.33;;;4.00;99.90;;;;;;5011877;28;20084;-46
2023/12/15 06:11:05;;;;;;;53.15;25.23;;;4.10;99.90;;;;;;5011466;28;20567;-43
2023/12/15 06:13:31;;;;;;;58.33;27.20;;;4.00;99.90;;;;;;5007407;28;20026;-44
2023/12/15 06:15:56;;;;;;;58.65;26.95;;;4.10;99.90;;;;;;5013151;28;20041;-45
2023/12/15 06:18:22;;;;;;;62.35;27.38;;;4.10;99.90;;;;;;5011300;28;20029;-46
2023/12/15 06:20:47;;;;;;;66.88;27.50;;;4.10;99.90;;;;;;5011592;28;20022;-46
2023/12/15 06:23:13;;;;;;;64.15;28.55;;;4.10;99.90;;;;;;5011218;28;20018;-47
2023/12/15 06:25:39;;;;;;;65.75;28.83;;;4.10;99.90;;;;;;5010913;28;20105;-44
2023/12/15 06:28:08;;;;;;;66.47;27.88;;;4.20;99.90;;;;;;4994205;28;20028;-45
2023/12/15 06:30:36;;;;;;;65.10;29.20;;;4.10;99.90;;;;;;5011743;28;20460;-43
2023/12/15 06:33:02;;;;;;;66.85;27.80;;;4.20;99.90;;;;;;5011818;28;20033;-44
2023/12/15 06:35:28;;;;;;;59.85;27.30;;;4.20;99.90;;;;;;5010994;28;20022;-45
2023/12/15 06:37:53;;;;;;;64.03;26.38;;;4.20;99.90;;;;;;5011627;28;20022;-43
2023/12/15 06:40:19;;;;;;;62.53;26.52;;;4.20;99.90;;;;;;5011476;28;20503;-44
2023/12/15 06:42:44;;;;;;;65.60;28.00;;;4.20;99.90;;;;;;5011538;28;20022;-44
2023/12/15 06:45:10;;;;;;;64.45;27.98;;;4.20;99.90;;;;;;5010763;28;20029;-44
2023/12/15 06:47:39;;;;;;;68.22;29.67;;;4.20;99.90;;;;;;4993073;28;20029;-46
2023/12/15 06:50:05;;;;;;;62.30;26.15;;;4.20;99.90;;;;;;5012556;28;20033;-44
2023/12/15 06:52:35;;;;;;;67.97;26.55;;;4.30;99.90;;;;;;5012857;28;20507;-47
2023/12/15 06:55:02;;;;;;;63.90;26.95;;;4.30;99.90;;;;;;5010660;28;20283;-44
2023/12/15 06:57:28;;;;;;;71.82;27.60;;;4.30;99.90;;;;;;5010864;28;20112;-45
2023/12/15 06:59:53;;;;;;;67.80;29.65;;;4.30;99.90;;;;;;5010631;28;20101;-44
2023/12/15 07:02:19;;;;;;;65.35;27.75;;;4.30;99.90;;;;;;5011073;28;20161;-47
2023/12/15 07:04:44;;;;;;;68.72;28.30;;;4.30;99.90;;;;;;4992986;28;20018;-44
2023/12/15 07:07:10;;;;;;;66.47;28.15;;;4.30;99.90;;;;;;5010881;28;20510;-44
2023/12/15 07:09:36;;;;;;;68.07;28.67;;;4.30;99.90;;;;;;5010393;28;20104;-45
2023/12/15 07:12:03;;;;;;;65.60;29.15;;;4.30;99.90;;;;;;5009518;28;20041;-45
2023/12/15 07:14:29;;;;;;;72.80;28.85;;;4.30;99.90;;;;;;5009716;28;20044;-43
2023/12/15 07:16:54;;;;;;;77.22;31.15;;;4.30;99.90;;;;;;5009711;28;20325;-45
2023/12/15 07:19:20;;;;;;;76.20;30.08;;;4.30;99.90;;;;;;5009831;28;20088;-43
2023/12/15 07:21:46;;;;;;;74.55;29.42;;;4.30;99.90;;;;;;4992636;28;20153;-43
2023/12/15 07:24:12;;;;;;;71.78;29.00;;;4.30;99.90;;;;;;5010394;28;20105;-48
2023/12/15 07:26:38;;;;;;;69.50;28.63;;;4.30;99.90;;;;;;5009924;28;20030;-45
2023/12/15 07:29:04;;;;;;;73.95;29.33;;;4.30;99.90;;;;;;5010268;28;20018;-47
2023/12/15 07:31:30;;;;;;;71.07;29.85;;;4.40;99.90;;;;;;5010343;28;20025;-45
2023/12/15 07:33:56;;;;;;;72.43;29.05;;;4.40;99.90;;;;;;5010187;28;20084;-43
2023/12/15 07:36:22;;;;;;;69.47;29.63;;;4.40;99.90;;;;;;5010376;28;20088;-44
2023/12/15 07:38:48;;;;;;;64.50;28.48;;;4.40;99.90;;;;;;5007193;28;20022;-48
2023/12/15 07:41:13;;;;;;;73.63;29.83;;;4.40;99.90;;;;;;5009801;28;20383;-45
2023/12/15 07:43:39;;;;;;;62.72;28.17;;;4.40;99.90;;;;;;5009656;28;20029;-43
2023/12/15 07:46:05;;;;;;;68.05;28.38;;;4.50;99.90;;;;;;4993302;28;20379;-47
2023/12/15 07:48:31;;;;;;;72.35;29.55;;;4.50;99.90;;;;;;5010163;28;20298;-44
2023/12/15 07:50:57;;;;;;;65.53;27.63;;;4.50;99.90;;;;;;5010208;28;20356;-44
2023/12/15 07:53:22;;;;;;;73.28;29.77;;;4.50;99.90;;;;;;4986930;28;20029;-47
2023/12/15 07:55:48;;;;;;;75.85;30.88;;;4.50;99.90;;;;;;5009073;28;20025;-47
2023/12/15 07:58:14;;;;;;;73.75;29.80;;;4.50;99.90;;;;;;5009546;28;20105;-44
2023/12/15 08:00:39;;;;;;;71.75;29.50;;;4.50;99.90;;;;;;5008729;28;20025;-43
2023/12/15 08:03:05;;;;;;;74.55;29.10;;;4.60;99.90;;;;;;5009526;28;20313;-47
2023/12/15 08:05:32;;;;;;;73.75;30.33;;;4.60;99.90;;;;;;5009441;28;20029;-43
2023/12/15 08:07:58;;;;;;;69.18;29.35;;;4.60;99.90;;;;;;5009356;28;20157;-47
2023/12/15 08:10:26;;;;;;;78.68;30.05;;;4.60;99.90;;;;;;4991824;28;20105;-46
2023/12/15 08:12:52;;;;;;;71.70;30.08;;;4.60;99.90;;;;;;5013084;28;20022;-46
2023/12/15 08:15:18;;;;;;;74.72;29.13;;;4.60;99.90;;;;;;5008563;28;20599;-42
2023/12/15 08:17:43;;;;;;;66.93;29.15;;;4.70;99.90;;;;;;5009526;28;20085;-43
2023/12/15 08:20:09;;;;;;;62.75;27.73;;;4.70;99.90;;;;;;4991704;28;20486;-45
2023/12/15 08:22:35;;;;;;;71.85;29.15;;;4.70;99.90;;;;;;5009306;28;20030;-47
2023/12/15 08:25:00;;;;;;;77.22;29.45;;;4.80;99.90;;;;;;5008413;28;20041;-44
2023/12/15 08:27:26;;;;;;;79.20;29.65;;;4.80;99.90;;;;;;5008196;28;20160;-45
2023/12/15 08:29:53;;;;;;;64.95;27.27;;;4.80;99.90;;;;;;5009294;28;20048;-45
2023/12/15 08:32:18;;;;;;;69.35;27.90;;;4.90;99.90;;;;;;5009225;28;20018;-45
2023/12/15 08:34:44;;;;;;;73.68;29.48;;;4.90;99.90;;;;;;5008252;28;20030;-47
2023/12/15 08:37:09;;;;;;;62.20;27.83;;;4.90;99.90;;;;;;5008446;28;20038;-45
2023/12/15 08:39:35;;;;;;;76.68;30.20;;;4.90;99.90;;;;;;5008768;28;20125;-45
2023/12/15 08:42:01;;;;;;;70.45;28.88;;;5.00;99.90;;;;;;5008573;28;20022;-47
2023/12/15 08:44:27;;;;;;;63.92;27.27;;;4.90;99.90;;;;;;5008825;28;20018;-48
2023/12/15 08:46:52;;;;;;;62.13;27.48;;;5.00;99.90;;;;;;5008121;28;20084;-44
2023/12/15 08:49:18;;;;;;;64.13;29.10;;;5.00;99.90;;;;;;5008702;28;20093;-43
2023/12/15 08:51:44;;;;;;;69.97;28.92;;;5.00;99.90;;;;;;5008401;28;20041;-47
2023/12/15 08:54:10;;;;;;;74.28;29.52;;;5.00;99.90;;;;;;5007564;28;20387;-44
2023/12/15 08:56:35;;;;;;;72.68;30.90;;;5.00;99.90;;;;;;5006201;28;20041;-44
2023/12/15 08:59:01;;;;;;;72.82;30.63;;;5.00;99.90;;;;;;5007104;28;20018;-45
2023/12/15 09:01:26;;;;;;;70.05;28.92;;;5.10;99.90;;;;;;5006475;28;20038;-45
2023/12/15 09:03:52;;;;;;;73.28;30.45;;;5.00;99.90;;;;;;5008833;28;20026;-46
2023/12/15 09:06:17;;;;;;;68.90;29.67;;;5.10;99.90;;;;;;5006735;28;20022;-44
2023/12/15 09:08:43;;;;;;;69.65;30.08;;;5.10;99.90;;;;;;5007456;28;20158;-43
2023/12/15 09:11:11;;;;;;;64.03;28.80;;;5.10;99.90;;;;;;5007710;28;20025;-44
2023/12/15 09:13:36;;;;;;;66.68;29.75;;;5.20;99.90;;;;;;5007628;28;20107;-45
2023/12/15 09:16:02;;;;;;;72.10;29.92;;;5.20;99.90;;;;;;5007325;28;20108;-45
2023/12/15 09:18:28;;;;;;;66.05;29.67;;;5.20;99.90;;;;;;5007456;28;20025;-47
2023/12/15 09:20:53;;;;;;;70.78;29.35;;;5.10;99.90;;;;;;5007900;28;20071;-44
2023/12/15 09:23:19;;;;;;;66.85;29.10;;;5.20;99.90;;;;;;5008168;28;20128;-43
2023/12/15 09:25:47;;;;;;;75.40;29.92;;;5.20;99.90;;;;;;4987818;28;20026;-43
2023/12/15 09:28:13;;;;;;;77.05;31.58;;;5.20;99.90;;;;;;4997931;28;20170;-45
2023/12/15 09:30:38;;;;;;;72.22;30.27;;;5.30;99.90;;;;;;5006055;28;20097;-45
2023/12/15 09:33:04;;;;;;;70.50;29.00;;;5.30;99.90;;;;;;5006361;28;20084;-44
2023/12/15 09:35:29;;;;;;;79.35;31.05;;;5.30;99.90;;;;;;5010520;28;20053;-44
2023/12/15 09:37:55;;;;;;;77.30;31.27;;;5.40;99.90;;;;;;5011317;28;20037;-44
2023/12/15 09:40:23;;;;;;;66.20;30.00;;;5.40;99.90;;;;;;5006755;28;20026;-43
2023/12/15 09:42:49;;;;;;;68.50;30.20;;;5.40;99.90;;;;;;5012641;28;20121;-43
2023/12/15 09:45:15;;;;;;;70.03;31.27;;;5.50;99.90;;;;;;5009601;28;20014;-44
2023/12/15 09:47:45;;;;;;;65.20;31.50;;;5.50;99.90;;;;;;5009826;28;20030;-45
2023/12/15 09:50:12;;;;;;;67.85;30.17;;;5.50;99.90;;;;;;5007261;28;20551;-45
2023/12/15 09:52:43;;;;;;;62.72;30.15;;;5.60;99.90;;;;;;5007104;28;20042;-46
2023/12/15 09:55:09;;;;;;;;;;;5.70;99.90;;;;;;5007577;28;20074;-46
2023/12/15 09:57:34;;;;;;;64.18;29.52;;;5.70;99.90;;;;;;5007511;28;19960;-47
2023/12/15 10:00:00;;;;;;;61.60;27.85;;;5.80;99.90;;;;;;5007643;28;20042;-44
2023/12/15 10:02:26;;;;;;;65.43;29.17;;;5.80;99.90;;;;;;5007417;28;20073;-46
2023/12/15 10:04:52;;;;;;;61.83;28.90;;;5.80;99.90;;;;;;5006462;28;20018;-44
2023/12/15 10:07:18;;;;;;;55.70;26.50;;;5.80;99.90;;;;;;5007267;28;20121;-47
2023/12/15 10:09:43;;;;;;;58.92;28.55;;;5.90;99.90;;;;;;5007498;28;20484;-43
2023/12/15 10:12:10;;;;;;;55.47;28.98;;;5.90;99.90;;;;;;5007377;28;20026;-45
2023/12/15 10:14:37;;;;;;;59.90;28.83;;;5.90;99.90;;;;;;4986659;28;20022;-46
2023/12/15 10:17:04;;;;;;;67.65;29.77;;;6.00;99.90;;;;;;5006822;28;20108;-45
2023/12/15 10:19:29;;;;;;;63.40;26.92;;;6.00;99.90;;;;;;5006609;28;20056;-46
2023/12/15 10:21:55;;;;;;;59.40;27.00;;;6.00;99.90;;;;;;5003350;28;20113;-43
2023/12/15 10:24:23;;;;;;;57.40;27.17;;;6.00;99.90;;;;;;5005191;28;20098;-47
2023/12/15 10:26:49;;;;;;;57.42;27.52;;;6.10;99.90;;;;;;5006410;28;20018;-44
2023/12/15 10:29:23;;;;;;;55.22;26.17;;;6.00;99.90;;;;;;5007259;28;20454;-46
2023/12/15 10:31:51;;;;;;;58.50;28.48;;;6.10;99.90;;;;;;5005730;28;20114;-44
2023/12/15 10:34:17;;;;;;;52.38;27.00;;;6.10;99.90;;;;;;5006946;28;20022;-45
2023/12/15 10:36:46;;;;;;;55.42;26.17;;;6.20;99.90;;;;;;5006783;28;20502;-43
2023/12/15 10:39:17;;;;;;;55.13;25.15;;;6.20;99.90;;;;;;5008813;28;20022;-47
2023/12/15 10:41:44;;;;;;;59.85;27.13;;;6.20;99.90;;;;;;5003245;28;20081;-46
2023/12/15 10:44:13;;;;;;;53.83;27.15;;;6.20;99.90;;;;;;5007262;28;20045;-45
2023/12/15 10:46:45;;;;;;;53.83;26.45;;;6.30;99.90;;;;;;5007058;28;20022;-44
2023/12/15 10:49:12;;;;;;;49.95;25.15;;;6.30;99.90;;;;;;5007012;28;20069;-43
2023/12/15 10:51:41;;;;;;;54.35;24.23;;;6.30;99.90;;;;;;5009523;28;20022;-44
2023/12/15 10:54:08;;;;;;;49.00;24.63;;;6.30;99.90;;;;;;5010607;28;20018;-43
2023/12/15 10:56:37;;;;;;;53.42;26.73;;;6.40;99.90;;;;;;5009288;28;20034;-44
2023/12/15 10:59:05;;;;;;;48.45;24.23;;;6.40;99.90;;;;;;5010064;28;20120;-45
2023/12/15 11:01:33;;;;;;;47.80;25.33;;;6.50;99.90;;;;;;5010306;28;20041;-44
2023/12/15 11:03:59;;;;;;;48.38;24.75;;;6.50;99.90;;;;;;5018894;28;20034;-43
2023/12/15 11:06:26;;;;;;;47.92;25.35;;;6.60;99.90;;;;;;5010435;28;20195;-44
2023/12/15 11:08:52;;;;;;;53.60;24.02;;;6.60;99.90;;;;;;5010803;28;20018;-47
2023/12/15 11:11:22;;;;;;;46.67;23.20;;;6.60;99.90;;;;;;5009996;28;20030;-48
2023/12/15 11:14:01;;;;;;;50.97;23.70;;;6.60;99.90;;;;;;4993169;28;20029;-43
2023/12/15 11:16:29;;;;;;;53.42;24.38;;;6.60;99.90;;;;;;5008831;28;20084;-43
2023/12/15 11:18:56;;;;;;;57.47;25.92;;;6.60;99.90;;;;;;5010136;28;20030;-44
2023/12/15 11:21:22;;;;;;;60.70;27.52;;;6.60;99.90;;;;;;5014249;28;20037;-44
2023/12/15 11:23:56;;;;;;;51.60;25.13;;;6.60;99.90;;;;;;5013224;28;20032;-46
2023/12/15 11:26:41;;;;;;;49.33;25.45;;;6.60;99.90;;;;;;5009125;28;20028;-44
2023/12/15 11:29:08;;;;;;;54.42;27.60;;;6.60;99.90;;;;;;5008085;28;20049;-42
2023/12/15 11:31:35;;;;;;;51.70;24.40;;;6.60;99.90;;;;;;5009950;28;20030;-43
2023/12/15 11:34:03;;;;;;;56.03;25.35;;;6.60;99.90;;;;;;5009649;28;20026;-44
2023/12/15 11:36:30;;;;;;;56.70;26.77;;;6.60;99.90;;;;;;4991073;28;20042;-44
2023/12/15 11:38:57;;;;;;;54.10;26.83;;;6.60;99.90;;;;;;5009595;28;20601;-46
2023/12/15 11:41:23;;;;;;;58.50;25.55;;;6.60;99.90;;;;;;5009189;28;20034;-47
2023/12/15 11:43:52;;;;;;;51.80;23.65;;;6.60;99.90;;;;;;5010180;28;20122;-47
2023/12/15 11:46:21;;;;;;;58.80;26.42;;;6.70;99.90;;;;;;5008775;28;20105;-47
2023/12/15 11:48:46;;;;;;;55.92;26.00;;;6.70;99.90;;;;;;5009282;28;20022;-49
2023/12/15 11:51:12;;;;;;;56.22;25.35;;;6.70;99.90;;;;;;5015574;28;20030;-45
2023/12/15 11:53:47;;;;;;;56.13;25.80;;;6.70;99.90;;;;;;5009324;28;20030;-44
2023/12/15 11:56:13;;;;;;;57.55;27.83;;;6.80;99.90;;;;;;5014891;28;20029;-46
2023/12/15 11:58:39;;;;;;;63.00;25.27;;;6.80;99.90;;;;;;5009547;28;20422;-43
2023/12/15 12:01:05;;;;;;;45.25;23.77;;;6.80;99.90;;;;;;5008453;28;20018;-44
2023/12/15 12:03:31;;;;;;;56.90;24.55;;;6.90;99.90;;;;;;4991744;28;20080;-46
2023/12/15 12:05:58;;;;;;;62.30;25.60;;;6.90;99.90;;;;;;5008555;28;20053;-45
2023/12/15 12:08:24;;;;;;;64.13;27.77;;;6.90;99.90;;;;;;5003419;28;20034;-43
2023/12/15 12:10:53;;;;;;;49.10;23.48;;;6.90;99.90;;;;;;5009236;28;20053;-45
2023/12/15 12:13:19;;;;;;;72.90;27.33;;;6.90;99.90;;;;;;4997832;28;20033;-44
2023/12/15 12:15:53;;;;;;;53.45;25.23;;;6.90;99.90;;;;;;5010581;28;20030;-44
2023/12/15 12:18:24;;;;;;;59.38;26.10;;;6.90;99.90;;;;;;5008921;28;20014;-45
2023/12/15 12:20:55;;;;;;;51.97;24.05;;;6.90;99.90;;;;;;5013159;28;20041;-43
2023/12/15 12:23:28;;;;;;;52.70;24.50;;;6.90;99.90;;;;;;5016581;28;20034;-43
2023/12/15 12:25:55;;;;;;;62.90;25.90;;;6.90;99.90;;;;;;5027261;28;20052;-45
2023/12/15 12:28:21;;;;;;;55.00;23.85;;;6.90;99.90;;;;;;5011293;28;20014;-44
2023/12/15 12:30:50;;;;;;;56.88;24.38;;;6.90;99.90;;;;;;5005972;28;20102;-44
2023/12/15 12:33:19;;;;;;;59.35;25.58;;;7.00;99.90;;;;;;5028119;28;20028;-44